Siemreap, Cambodia

5:49 PM ICT on September 18, 2014 (GMT +0700)
Siem Reap | Change Station
CLOSE
Current Station
Airport
Location: Siemreap,
Elevation: 49 ft
Nearby Weather Stations

Elev 49 ft 13.37 °N, 103.85 °E | Updated 19 minutes ago

Partly Cloudy
Partly Cloudy
88 °F
Feels Like 96 °F
N
4
Wind Variable Wind from NW

Today
High -- | Low -- °F
--% Chance of Precip.
Yesterday
High -- | Low -- °F
Precip. -- in
5:53 AM 6:03 PM
Waning Crescent, 28% visible
Pressure 29.74 in
Visibility 6.2 miles
Clouds Few 1800 ft
Heat Index 96 °F
Dew Point 73 °F
Humidity 62%
Rainfall 0.00 in
Snow Depth Not available.
UV 0 out of 12
Pollen Not available.
Air Quality Not available.
Flu Activity Not available.
METAR VDSR 181030Z 32003KT 9999 FEW018 31/23 Q1007

More Conditions Fewer Conditions

Pressure 29.74 in
Visibility 6.2 miles
Clouds Few 1800 ft
Heat Index 96 °F
Dew Point 73 °F
Humidity 62%
Rainfall 0.00 in
Snow Depth Not available.
UV 0 out of 12
Pollen Not available.
Air Quality Not available.
Flu Activity Not available.
METAR VDSR 181030Z 32003KT 9999 FEW018 31/23 Q1007

More Conditions Fewer Conditions

10-Day Weather Forecast

Almanac

Astronomy

Sep. 18, 2014 Rise Set
Actual Time 5:53 AM ICT 6:03 PM ICT
Civil Twilight 5:32 AM ICT 6:25 PM ICT
Nautical Twilight 5:07 AM ICT 6:49 PM ICT
Astronomical Twilight 4:42 AM ICT 7:14 PM ICT
Moon 12:57 AM ICT 1:55 PM ICT
Length of Visible Light 12h 52m
Length of Day
12h 10m
Tomorrow will be 0m 45s shorter.
Waning Crescent, 28% of the Moon is Illuminated
Today
Waning Crescent
Sep 24
New
Oct 1
First Quarter
Oct 8
Full
Oct 15
Last Quarter

Yesterday's Extremes

Country Highs Country Lows

Community

WunderPhotos

Upload Photos

1,754,314 photos uploaded!

Nearby

Snow Depth

Not available.

Earthquake Activity

City Distance Mag. Time & Date
No recent earthquake activity has been reported nearby.
Minimum magnitude displayed is 2.5.

Coastal Water Temperatures

Place Temperature
No Stations Reporting

Nearby Weather Stations